LFRJ

Landivisiau Air Base

Airport
ICAO code
LFRJ
Summary
ICAO Region
EUR
ICAO Territory
Location

, Bretagne

Serving
Landivisiau
Elevation
348 ft
Coordinates
48° 31' 49" N , 4° 9' 6" W
Metar
Observation
LFRJ 091830Z AUTO 10003KT 6000 FEW033/// SCT047/// ///TCU 02/01 Q1009
Station
Landivisiau
Date/Time
2022-12-09 18:30:00
Wind direction
100°
Wind speed
03 kts
Lowest cloud amount
few clouds
Temperature
2°C
Dew point
1°C
Humidity
93%
QNH
1009 hPa
Weather condition
n/a

Runways

Designator Length Width Surface Rops
8/26 2700 45 CON No/No

Airport map

Aerial View

SKYbrary Partners:

Safety knowledge contributed by: